createdAt,value
2017-05-18T00:00:30.023Z,23.96
2017-05-18T00:02:57.566Z,23.90
2017-05-18T00:05:25.116Z,23.87
2017-05-18T00:07:52.688Z,23.80
2017-05-18T00:10:20.199Z,23.77
2017-05-18T00:12:47.769Z,23.79
2017-05-18T00:15:15.284Z,23.81
2017-05-18T00:17:43.001Z,23.80
2017-05-18T00:20:10.500Z,23.73
2017-05-18T00:22:38.009Z,23.68
2017-05-18T00:25:05.604Z,23.66
2017-05-18T00:27:33.236Z,23.64
2017-05-18T00:30:00.944Z,23.62
2017-05-18T00:32:28.476Z,23.68
2017-05-18T00:34:56.005Z,23.61
2017-05-18T00:37:23.568Z,23.63
2017-05-18T00:39:51.086Z,23.60
2017-05-18T00:42:18.785Z,23.56
2017-05-18T00:44:46.299Z,23.61
2017-05-18T00:47:13.820Z,23.53
2017-05-18T00:49:41.373Z,23.53
2017-05-18T00:52:08.914Z,23.53
2017-05-18T00:54:36.471Z,23.53
2017-05-18T00:57:03.975Z,23.51
2017-05-18T00:59:31.534Z,23.52
2017-05-18T01:01:59.051Z,23.49
2017-05-18T01:04:26.720Z,23.46
2017-05-18T01:06:54.240Z,23.41
2017-05-18T01:09:21.768Z,23.43
2017-05-18T01:11:49.348Z,23.42
2017-05-18T01:14:16.938Z,23.42
2017-05-18T01:16:44.887Z,23.39
2017-05-18T01:19:12.504Z,23.46
2017-05-18T01:21:40.022Z,23.47
2017-05-18T01:24:07.738Z,23.44
2017-05-18T01:26:35.264Z,23.44
2017-05-18T01:29:02.781Z,23.36
2017-05-18T01:31:30.555Z,23.20
2017-05-18T01:33:58.117Z,23.07
2017-05-18T01:36:25.619Z,22.97
2017-05-18T01:38:53.173Z,23.03
2017-05-18T01:41:20.769Z,22.98
2017-05-18T01:43:48.495Z,22.95
2017-05-18T01:46:15.998Z,22.89
2017-05-18T01:48:43.516Z,22.89
2017-05-18T01:51:11.071Z,22.88
2017-05-18T01:53:38.756Z,22.81
2017-05-18T01:56:06.327Z,22.76
2017-05-18T01:58:33.934Z,22.65
2017-05-18T02:01:01.476Z,22.56
2017-05-18T02:03:28.988Z,22.34
2017-05-18T02:05:56.544Z,22.43
2017-05-18T02:08:24.047Z,22.53
2017-05-18T02:10:51.641Z,22.56
2017-05-18T02:13:19.193Z,22.57
2017-05-18T02:15:46.732Z,22.43
2017-05-18T02:18:14.258Z,22.40
2017-05-18T02:20:41.831Z,22.43
2017-05-18T02:23:09.360Z,22.53
2017-05-18T02:25:36.877Z,22.57
2017-05-18T02:28:04.457Z,22.56
2017-05-18T02:30:32.000Z,22.32
2017-05-18T02:32:59.588Z,22.28
2017-05-18T02:35:27.105Z,22.38
2017-05-18T02:37:54.648Z,22.37
2017-05-18T02:40:22.171Z,22.41
2017-05-18T02:42:49.717Z,22.13
2017-05-18T02:45:17.239Z,22.13
2017-05-18T02:47:44.785Z,22.01
2017-05-18T02:50:12.298Z,22.04
2017-05-18T02:52:40.024Z,22.18
2017-05-18T02:55:07.595Z,22.07
2017-05-18T02:57:35.403Z,22.00
2017-05-18T03:00:02.980Z,21.98
2017-05-18T03:02:30.532Z,21.92
2017-05-18T03:04:58.075Z,21.91
2017-05-18T03:07:25.632Z,21.95
2017-05-18T03:09:53.492Z,21.94
2017-05-18T03:12:21.048Z,21.86
2017-05-18T03:14:48.572Z,21.88
2017-05-18T03:17:16.162Z,21.76
2017-05-18T03:19:43.682Z,21.75
2017-05-18T03:22:11.200Z,21.63
2017-05-18T03:24:39.071Z,21.72
2017-05-18T03:27:06.595Z,21.67
2017-05-18T03:29:34.104Z,21.67
2017-05-18T03:32:01.666Z,21.80
2017-05-18T03:34:29.200Z,21.88
2017-05-18T03:36:56.747Z,21.95
2017-05-18T03:39:24.277Z,21.92
2017-05-18T03:41:51.823Z,21.79
2017-05-18T03:44:19.369Z,21.90
2017-05-18T03:46:46.915Z,21.91
2017-05-18T03:49:14.434Z,21.83
2017-05-18T03:51:42.263Z,21.65
2017-05-18T03:54:09.791Z,21.92
2017-05-18T03:56:37.305Z,21.67
2017-05-18T03:59:04.872Z,21.51
2017-05-18T04:01:32.428Z,21.37
2017-05-18T04:04:00.028Z,21.33
2017-05-18T04:06:27.605Z,21.07
2017-05-18T04:08:55.548Z,20.99
2017-05-18T04:11:23.067Z,21.18
2017-05-18T04:13:50.583Z,21.12
2017-05-18T04:16:18.137Z,21.07
2017-05-18T04:18:45.660Z,21.01
2017-05-18T04:21:13.225Z,21.14
2017-05-18T04:23:40.752Z,21.16
2017-05-18T04:26:08.291Z,21.31
2017-05-18T04:28:35.825Z,21.41
2017-05-18T04:31:03.387Z,21.31
2017-05-18T04:33:30.896Z,21.37
2017-05-18T04:35:58.419Z,21.59
2017-05-18T04:38:25.964Z,21.69
2017-05-18T04:40:54.012Z,21.84
2017-05-18T04:43:21.576Z,21.93
2017-05-18T04:45:49.116Z,21.95
2017-05-18T04:48:16.704Z,21.82
2017-05-18T04:50:44.256Z,21.75
2017-05-18T04:53:11.824Z,21.82
2017-05-18T04:55:39.375Z,21.80
2017-05-18T04:58:07.170Z,21.86
2017-05-18T05:00:34.738Z,21.85
2017-05-18T05:03:02.218Z,21.95
2017-05-18T05:05:29.773Z,21.97
2017-05-18T05:07:57.284Z,22.16
2017-05-18T05:10:24.979Z,22.19
2017-05-18T05:12:52.507Z,22.20
2017-05-18T05:15:20.102Z,22.27
2017-05-18T05:17:47.763Z,22.33
2017-05-18T05:20:15.379Z,22.47
2017-05-18T05:22:42.910Z,22.55
2017-05-18T05:25:10.510Z,22.40
2017-05-18T05:27:39.694Z,22.29
2017-05-18T05:30:07.198Z,22.06
2017-05-18T05:32:34.767Z,22.20
2017-05-18T05:35:02.283Z,22.22
2017-05-18T05:37:38.177Z,22.27
2017-05-18T05:40:06.780Z,22.29
2017-05-18T05:42:34.619Z,22.31
2017-05-18T05:45:02.242Z,22.39
2017-05-18T05:47:29.826Z,22.25
2017-05-18T05:49:57.358Z,21.91
2017-05-18T05:52:25.829Z,21.88
2017-05-18T05:54:53.476Z,21.56
2017-05-18T05:57:20.983Z,21.60
2017-05-18T05:59:53.266Z,21.46
2017-05-18T06:02:20.817Z,21.35
2017-05-18T06:04:48.400Z,21.32
2017-05-18T06:07:16.917Z,21.33
2017-05-18T06:09:44.475Z,21.38
2017-05-18T06:12:11.990Z,21.39
2017-05-18T06:14:39.587Z,21.41
2017-05-18T06:17:07.134Z,21.58
2017-05-18T06:19:34.688Z,21.60
2017-05-18T06:22:02.298Z,21.67
2017-05-18T06:24:29.875Z,21.68
2017-05-18T06:26:57.453Z,21.77
2017-05-18T06:29:25.053Z,21.75
2017-05-18T06:31:52.599Z,21.68
2017-05-18T06:34:20.164Z,21.73
2017-05-18T06:36:47.688Z,21.61
2017-05-18T06:39:15.273Z,21.49
2017-05-18T06:41:42.832Z,21.52
2017-05-18T06:44:10.444Z,21.36
2017-05-18T06:46:38.012Z,21.21
2017-05-18T06:49:05.540Z,21.14
2017-05-18T06:51:33.084Z,21.26
2017-05-18T06:54:00.600Z,21.30
2017-05-18T06:56:28.178Z,21.19
2017-05-18T06:58:55.694Z,21.28
2017-05-18T07:01:23.275Z,21.30
2017-05-18T07:03:50.824Z,21.17
2017-05-18T07:06:18.362Z,20.96
2017-05-18T07:08:46.317Z,20.93
2017-05-18T07:11:13.827Z,20.98
2017-05-18T07:13:41.333Z,20.82
2017-05-18T07:16:09.232Z,20.78
2017-05-18T07:18:36.748Z,20.84
2017-05-18T07:21:04.262Z,20.71
2017-05-18T07:23:31.806Z,20.91
2017-05-18T07:25:59.332Z,21.17
2017-05-18T07:28:27.161Z,21.14
2017-05-18T07:30:55.287Z,21.17
2017-05-18T07:33:22.810Z,21.25
2017-05-18T07:35:50.370Z,21.12
2017-05-18T07:38:17.887Z,21.01
2017-05-18T07:40:45.479Z,20.97
2017-05-18T07:43:13.119Z,21.20
2017-05-18T07:45:40.680Z,21.19
2017-05-18T07:48:08.312Z,21.39
2017-05-18T07:50:35.860Z,21.54
2017-05-18T07:53:03.411Z,21.71
2017-05-18T07:55:31.259Z,21.39
2017-05-18T07:57:58.764Z,21.53
2017-05-18T08:00:26.296Z,21.72
2017-05-18T08:02:53.932Z,21.50
2017-05-18T08:05:21.464Z,21.63
2017-05-18T08:07:49.046Z,21.78
2017-05-18T08:10:16.922Z,21.73
2017-05-18T08:12:44.453Z,22.03
2017-05-18T08:15:11.959Z,22.04
2017-05-18T08:17:39.513Z,21.79
2017-05-18T08:20:07.027Z,21.84
2017-05-18T08:22:34.568Z,22.12
2017-05-18T08:25:02.088Z,22.24
2017-05-18T08:27:29.932Z,22.33
2017-05-18T08:29:57.456Z,22.03
2017-05-18T08:32:25.007Z,21.91
2017-05-18T08:34:52.595Z,21.89
2017-05-18T08:37:20.223Z,21.73
2017-05-18T08:39:47.744Z,21.86
2017-05-18T08:42:15.288Z,21.97
2017-05-18T08:44:42.905Z,22.14
2017-05-18T08:47:10.474Z,22.22
2017-05-18T08:49:38.167Z,22.33
2017-05-18T08:52:05.683Z,22.59
2017-05-18T08:54:33.250Z,21.81
2017-05-18T08:57:00.903Z,21.99
2017-05-18T08:59:28.441Z,22.15
2017-05-18T09:01:56.009Z,22.43
2017-05-18T09:04:23.541Z,22.36
2017-05-18T09:06:51.080Z,22.59
2017-05-18T09:09:18.628Z,22.81
2017-05-18T09:11:46.495Z,22.96
2017-05-18T09:14:14.010Z,23.02
2017-05-18T09:16:41.544Z,22.88
2017-05-18T09:19:09.164Z,22.68
2017-05-18T09:21:36.781Z,23.09
2017-05-18T09:24:04.423Z,23.35
2017-05-18T09:26:31.944Z,23.27
2017-05-18T09:28:59.491Z,23.30
2017-05-18T09:31:27.007Z,23.05
2017-05-18T09:33:54.565Z,23.37
2017-05-18T09:36:22.105Z,23.36
2017-05-18T09:38:49.699Z,23.88
2017-05-18T09:41:17.231Z,24.36
2017-05-18T09:43:44.776Z,24.03
2017-05-18T09:46:12.325Z,23.80
2017-05-18T09:48:39.880Z,23.92
2017-05-18T09:51:07.439Z,23.81
2017-05-18T09:53:35.034Z,23.50
2017-05-18T09:56:02.584Z,23.19
2017-05-18T09:58:30.131Z,22.72
2017-05-18T10:00:57.671Z,22.35
2017-05-18T10:03:25.598Z,22.25
2017-05-18T10:05:53.118Z,22.04
2017-05-18T10:08:20.683Z,21.76
2017-05-18T10:10:49.143Z,21.57
2017-05-18T10:13:16.697Z,21.52
2017-05-18T10:15:44.519Z,21.44
2017-05-18T10:18:12.043Z,21.25
2017-05-18T10:20:39.569Z,20.90
2017-05-18T10:23:07.152Z,20.72
2017-05-18T10:25:34.724Z,20.67
2017-05-18T10:28:02.341Z,20.85
2017-05-18T10:30:29.832Z,20.62
2017-05-18T10:32:57.378Z,20.58
2017-05-18T10:35:24.899Z,20.39
2017-05-18T10:37:52.450Z,20.40
2017-05-18T10:40:19.988Z,20.04
2017-05-18T10:42:47.608Z,20.09
2017-05-18T10:45:15.132Z,19.94
2017-05-18T10:47:42.668Z,19.96
2017-05-18T10:50:10.250Z,19.76
2017-05-18T10:52:37.791Z,19.62
2017-05-18T10:55:05.376Z,19.63
2017-05-18T10:57:32.917Z,19.67
2017-05-18T11:00:00.755Z,20.10
2017-05-18T11:02:28.268Z,20.26
2017-05-18T11:04:55.781Z,20.20
2017-05-18T11:07:23.314Z,20.20
2017-05-18T11:09:50.874Z,19.94
2017-05-18T11:12:18.416Z,20.03
2017-05-18T11:14:45.939Z,19.81
2017-05-18T11:17:13.538Z,20.06
2017-05-18T11:19:41.112Z,19.99
2017-05-18T11:22:08.972Z,19.82
2017-05-18T11:24:36.495Z,19.56
2017-05-18T11:27:04.018Z,19.48
2017-05-18T11:29:31.563Z,19.37
2017-05-18T11:31:59.112Z,19.23
2017-05-18T11:34:26.696Z,19.41
2017-05-18T11:36:54.281Z,19.43
2017-05-18T11:39:22.101Z,19.52
2017-05-18T11:41:49.630Z,19.41
2017-05-18T11:44:17.144Z,19.56
2017-05-18T11:46:44.696Z,19.47
2017-05-18T11:49:12.303Z,19.57
2017-05-18T11:51:39.925Z,19.50
2017-05-18T11:54:07.828Z,19.47
2017-05-18T11:56:35.387Z,19.30
2017-05-18T11:59:02.913Z,19.00
2017-05-18T12:01:30.793Z,18.97
2017-05-18T12:03:58.349Z,18.77
2017-05-18T12:06:25.903Z,18.76
2017-05-18T12:08:53.475Z,18.72
2017-05-18T12:11:21.016Z,18.72
2017-05-18T12:13:48.928Z,18.67
2017-05-18T12:16:16.459Z,18.68
2017-05-18T12:18:43.986Z,18.68
2017-05-18T12:21:11.680Z,18.74
2017-05-18T12:23:39.201Z,18.87
2017-05-18T12:26:06.771Z,18.95
2017-05-18T12:28:34.318Z,19.05
2017-05-18T12:31:01.910Z,19.13
2017-05-18T12:33:29.458Z,19.37
2017-05-18T12:35:57.003Z,19.25
2017-05-18T12:38:24.889Z,19.25
2017-05-18T12:40:52.456Z,18.91
2017-05-18T12:43:20.093Z,18.93
2017-05-18T12:45:47.668Z,19.06
2017-05-18T12:48:15.225Z,19.48
2017-05-18T12:50:42.870Z,19.69
2017-05-18T12:53:10.515Z,19.83
2017-05-18T12:55:38.135Z,20.28
2017-05-18T12:58:05.716Z,20.41
2017-05-18T13:00:33.275Z,20.48
2017-05-18T13:03:00.877Z,20.41
2017-05-18T13:05:28.478Z,20.58
2017-05-18T13:07:56.090Z,20.54
2017-05-18T13:10:23.627Z,20.43
2017-05-18T13:12:51.230Z,20.44
2017-05-18T13:15:18.783Z,20.39
2017-05-18T13:17:46.305Z,20.48
2017-05-18T13:20:13.977Z,20.39
2017-05-18T13:22:41.544Z,20.65
2017-05-18T13:25:09.470Z,20.38
2017-05-18T13:27:36.991Z,20.32
2017-05-18T13:30:04.510Z,20.40
2017-05-18T13:32:32.433Z,20.62
2017-05-18T13:34:59.961Z,20.73
2017-05-18T13:37:27.495Z,20.63
2017-05-18T13:39:55.056Z,20.88
2017-05-18T13:42:22.608Z,20.90
2017-05-18T13:44:50.165Z,20.96
2017-05-18T13:47:17.686Z,21.10
2017-05-18T13:49:45.579Z,21.07
2017-05-18T13:52:13.141Z,21.20
2017-05-18T13:54:40.683Z,21.40
2017-05-18T13:57:08.235Z,21.67
2017-05-18T13:59:35.761Z,21.92
2017-05-18T14:02:03.605Z,21.73
2017-05-18T14:04:31.225Z,21.98
2017-05-18T14:06:58.768Z,21.94
2017-05-18T14:09:26.315Z,22.20
2017-05-18T14:11:53.854Z,22.64
2017-05-18T14:14:21.444Z,22.83
2017-05-18T14:16:48.979Z,23.07
2017-05-18T14:19:16.528Z,23.18
2017-05-18T14:21:44.129Z,22.99
2017-05-18T14:24:11.724Z,22.42
2017-05-18T14:26:39.244Z,22.01
2017-05-18T14:29:06.813Z,21.62
2017-05-18T14:31:34.353Z,21.57
2017-05-18T14:34:02.196Z,21.56
2017-05-18T14:36:29.722Z,21.62
2017-05-18T14:38:57.240Z,21.62
2017-05-18T14:41:24.809Z,21.54
2017-05-18T14:43:52.332Z,21.47
2017-05-18T14:46:19.896Z,21.42
2017-05-18T14:48:47.414Z,21.42
2017-05-18T14:51:14.958Z,21.39
2017-05-18T14:53:42.490Z,21.37
2017-05-18T14:56:10.404Z,21.30
2017-05-18T14:58:38.009Z,20.98
2017-05-18T15:01:05.554Z,20.89
2017-05-18T15:03:33.129Z,20.83
2017-05-18T15:06:00.664Z,20.72
2017-05-18T15:08:28.519Z,20.59
2017-05-18T15:10:56.057Z,20.56
2017-05-18T15:13:23.583Z,20.69
2017-05-18T15:15:51.467Z,20.64
2017-05-18T15:18:18.997Z,20.65
2017-05-18T15:20:46.543Z,20.66
2017-05-18T15:23:14.104Z,20.67
2017-05-18T15:25:41.637Z,20.89
2017-05-18T15:28:09.231Z,21.10
2017-05-18T15:30:36.785Z,20.94
2017-05-18T15:33:04.387Z,21.15
2017-05-18T15:35:31.919Z,21.06
2017-05-18T15:37:59.445Z,21.16
2017-05-18T15:40:27.384Z,21.22
2017-05-18T15:42:54.916Z,21.38
2017-05-18T15:45:22.460Z,21.51
2017-05-18T15:47:50.008Z,21.66
2017-05-18T15:50:17.582Z,21.67
2017-05-18T15:52:45.158Z,21.48
2017-05-18T15:55:12.731Z,21.61
2017-05-18T15:57:40.264Z,21.78
2017-05-18T16:00:08.326Z,21.96
2017-05-18T16:02:35.880Z,22.07
2017-05-18T16:05:03.404Z,21.91
2017-05-18T16:07:30.954Z,21.82
2017-05-18T16:09:58.551Z,21.73
2017-05-18T16:12:26.093Z,21.66
2017-05-18T16:14:53.627Z,21.63
2017-05-18T16:17:21.203Z,21.33
2017-05-18T16:19:48.735Z,21.22
2017-05-18T16:22:16.264Z,21.45
2017-05-18T16:24:43.825Z,21.70
2017-05-18T16:27:11.340Z,21.93
2017-05-18T16:29:38.927Z,22.54
2017-05-18T16:32:06.453Z,23.08
2017-05-18T16:34:33.977Z,23.56
2017-05-18T16:37:01.517Z,23.33
2017-05-18T16:39:29.073Z,23.15
2017-05-18T16:41:56.721Z,22.86
2017-05-18T16:44:24.238Z,22.87
2017-05-18T16:46:51.780Z,22.41
2017-05-18T16:49:19.375Z,22.19
2017-05-18T16:51:46.909Z,21.90
2017-05-18T16:54:14.482Z,21.71
2017-05-18T16:56:42.053Z,21.61
2017-05-18T16:59:09.592Z,21.68
2017-05-18T17:01:37.131Z,21.71
2017-05-18T17:04:04.663Z,21.80
2017-05-18T17:06:32.651Z,21.89
2017-05-18T17:09:00.176Z,22.14
2017-05-18T17:11:27.737Z,21.74
2017-05-18T17:13:55.723Z,21.82
2017-05-18T17:16:23.248Z,22.03
2017-05-18T17:18:51.307Z,22.07
2017-05-18T17:21:18.860Z,21.80
2017-05-18T17:23:46.415Z,21.88
2017-05-18T17:26:14.010Z,21.76
2017-05-18T17:28:41.545Z,21.82
2017-05-18T17:31:09.140Z,21.48
2017-05-18T17:33:36.721Z,21.56
2017-05-18T17:36:04.271Z,21.70
2017-05-18T17:38:32.005Z,21.79
2017-05-18T17:40:59.551Z,21.71
2017-05-18T17:43:27.098Z,21.58
2017-05-18T17:45:54.908Z,21.53
2017-05-18T17:48:22.451Z,21.59
2017-05-18T17:50:50.016Z,21.67
2017-05-18T17:53:17.569Z,21.78
2017-05-18T17:55:45.100Z,21.74
2017-05-18T17:58:13.117Z,21.73
2017-05-18T18:00:40.627Z,21.79
2017-05-18T18:03:08.211Z,21.57
2017-05-18T18:05:35.758Z,21.50
2017-05-18T18:08:03.314Z,21.88
2017-05-18T18:10:30.919Z,22.18
2017-05-18T18:12:58.453Z,22.45
2017-05-18T18:15:26.300Z,22.65
2017-05-18T18:17:53.845Z,22.48
2017-05-18T18:20:21.380Z,22.42
2017-05-18T18:22:48.945Z,21.99
2017-05-18T18:25:16.496Z,22.09
2017-05-18T18:27:44.441Z,22.23
2017-05-18T18:30:11.975Z,22.08
2017-05-18T18:32:39.497Z,22.05
2017-05-18T18:35:07.048Z,21.94
2017-05-18T18:37:34.578Z,21.89
2017-05-18T18:40:02.154Z,21.84
2017-05-18T18:42:29.677Z,21.77
2017-05-18T18:44:57.267Z,21.70
2017-05-18T18:47:24.812Z,21.57
2017-05-18T18:49:52.335Z,21.48
2017-05-18T18:52:20.143Z,21.43
2017-05-18T18:54:47.661Z,21.41
2017-05-18T18:57:15.174Z,21.40
2017-05-18T18:59:42.708Z,21.37
2017-05-18T19:02:10.258Z,21.28
2017-05-18T19:04:37.830Z,21.10
2017-05-18T19:07:05.373Z,20.89
2017-05-18T19:09:33.199Z,20.67
2017-05-18T19:12:00.737Z,20.65
2017-05-18T19:14:28.264Z,20.83
2017-05-18T19:16:55.836Z,20.85
2017-05-18T19:19:23.420Z,20.73
2017-05-18T19:21:50.952Z,20.65
2017-05-18T19:24:18.540Z,20.53
2017-05-18T19:26:46.084Z,20.40
2017-05-18T19:29:13.702Z,20.41
2017-05-18T19:31:41.223Z,20.34
2017-05-18T19:34:08.797Z,20.32
2017-05-18T19:36:36.392Z,20.25
2017-05-18T19:39:03.941Z,20.21
2017-05-18T19:41:31.488Z,20.22
2017-05-18T19:43:59.124Z,20.25
2017-05-18T19:46:26.683Z,20.17
2017-05-18T19:48:54.283Z,20.20
2017-05-18T19:51:21.829Z,20.32
2017-05-18T19:53:49.364Z,20.30
2017-05-18T19:56:16.972Z,20.37
2017-05-18T19:58:44.599Z,20.30
2017-05-18T20:01:12.467Z,20.15
2017-05-18T20:03:40.013Z,20.23
2017-05-18T20:06:07.548Z,20.34
2017-05-18T20:08:35.119Z,20.36
2017-05-18T20:11:02.657Z,20.38
2017-05-18T20:13:30.216Z,20.45
2017-05-18T20:15:57.784Z,20.40
2017-05-18T20:18:25.335Z,20.40
2017-05-18T20:20:53.231Z,20.51
2017-05-18T20:23:20.759Z,20.39
2017-05-18T20:25:48.289Z,20.38
2017-05-18T20:28:16.139Z,20.35
2017-05-18T20:30:43.672Z,20.24
2017-05-18T20:33:11.202Z,19.98
2017-05-18T20:35:39.167Z,20.03
2017-05-18T20:38:06.711Z,20.07
2017-05-18T20:40:34.248Z,20.07
2017-05-18T20:43:01.830Z,20.07
2017-05-18T20:45:29.413Z,20.06
2017-05-18T20:47:57.064Z,20.08
2017-05-18T20:50:24.675Z,20.08
2017-05-18T20:52:52.263Z,20.01
2017-05-18T20:55:19.827Z,19.93
2017-05-18T20:57:47.348Z,19.87
2017-05-18T21:00:14.912Z,19.84
2017-05-18T21:02:42.522Z,19.84
2017-05-18T21:05:10.079Z,19.79
2017-05-18T21:07:37.639Z,19.72
2017-05-18T21:10:05.261Z,19.69
2017-05-18T21:12:32.800Z,19.70
2017-05-18T21:15:00.406Z,19.69
2017-05-18T21:17:27.939Z,19.72
2017-05-18T21:19:55.459Z,19.71
2017-05-18T21:22:23.015Z,19.66
2017-05-18T21:24:50.531Z,19.67
2017-05-18T21:27:18.084Z,19.62
2017-05-18T21:29:45.606Z,19.57
2017-05-18T21:32:13.187Z,19.58
2017-05-18T21:34:40.709Z,19.51
2017-05-18T21:37:08.231Z,19.37
2017-05-18T21:39:35.813Z,19.23
2017-05-18T21:42:03.324Z,19.05
2017-05-18T21:44:30.878Z,18.94
2017-05-18T21:46:58.394Z,18.81
2017-05-18T21:49:26.187Z,18.80
2017-05-18T21:51:53.740Z,18.70
2017-05-18T21:54:21.256Z,18.67
2017-05-18T21:56:48.886Z,18.67
2017-05-18T21:59:16.432Z,18.74
2017-05-18T22:01:44.076Z,18.90
2017-05-18T22:04:11.613Z,18.83
2017-05-18T22:06:39.427Z,18.79
2017-05-18T22:09:06.943Z,18.70
2017-05-18T22:11:34.455Z,18.67
2017-05-18T22:14:01.998Z,18.57
2017-05-18T22:16:29.504Z,18.51
2017-05-18T22:18:57.045Z,18.47
2017-05-18T22:21:24.556Z,18.46
2017-05-18T22:23:52.096Z,18.44
2017-05-18T22:26:19.599Z,18.31
2017-05-18T22:28:47.424Z,18.25
2017-05-18T22:31:14.940Z,18.20
2017-05-18T22:33:42.471Z,18.45
2017-05-18T22:36:10.325Z,18.29
2017-05-18T22:38:37.869Z,18.18
2017-05-18T22:41:05.401Z,18.17
2017-05-18T22:43:32.984Z,18.19
2017-05-18T22:46:00.491Z,18.26
2017-05-18T22:48:28.372Z,18.28
2017-05-18T22:50:55.896Z,18.15
2017-05-18T22:53:23.432Z,18.12
2017-05-18T22:55:50.977Z,18.14
2017-05-18T22:58:18.497Z,18.22
2017-05-18T23:00:46.315Z,18.15
2017-05-18T23:03:13.866Z,18.14
2017-05-18T23:05:41.392Z,18.34
2017-05-18T23:08:08.942Z,18.41
2017-05-18T23:10:36.775Z,18.42
2017-05-18T23:13:04.287Z,18.46
2017-05-18T23:15:31.811Z,18.45
2017-05-18T23:17:59.371Z,18.42
2017-05-18T23:20:26.943Z,18.59
2017-05-18T23:22:54.604Z,18.61
2017-05-18T23:25:22.190Z,18.58
2017-05-18T23:27:49.767Z,18.56
2017-05-18T23:30:17.308Z,18.45
2017-05-18T23:32:44.890Z,18.41
2017-05-18T23:35:12.704Z,18.45
2017-05-18T23:37:40.247Z,18.49
2017-05-18T23:40:07.763Z,18.48
2017-05-18T23:42:35.329Z,18.45
2017-05-18T23:45:02.826Z,18.41
2017-05-18T23:47:30.383Z,18.47
2017-05-18T23:49:57.904Z,18.46
2017-05-18T23:52:25.419Z,18.49
2017-05-18T23:54:52.964Z,18.53
2017-05-18T23:57:20.490Z,18.50
2017-05-18T23:59:48.029Z,18.52
